sensor_id;sensor_type;location;lat;lon;timestamp;P1;durP1;ratioP1;P2;durP2;ratioP2
78004;SDS011;67209;51.698;-0.292;2023-10-31T00:00:50;7.00;;;3.00;;
78004;SDS011;67209;51.698;-0.292;2023-10-31T00:03:16;9.20;;;3.50;;
78004;SDS011;67209;51.698;-0.292;2023-10-31T00:05:42;8.13;;;3.08;;
78004;SDS011;67209;51.698;-0.292;2023-10-31T00:08:08;8.32;;;3.17;;
78004;SDS011;67209;51.698;-0.292;2023-10-31T00:10:35;7.38;;;2.67;;
78004;SDS011;67209;51.698;-0.292;2023-10-31T00:13:01;8.98;;;3.03;;
78004;SDS011;67209;51.698;-0.292;2023-10-31T00:15:27;5.57;;;2.25;;
78004;SDS011;67209;51.698;-0.292;2023-10-31T00:17:55;8.10;;;2.78;;
78004;SDS011;67209;51.698;-0.292;2023-10-31T00:20:21;7.90;;;2.53;;
78004;SDS011;67209;51.698;-0.292;2023-10-31T00:22:47;8.10;;;2.85;;
78004;SDS011;67209;51.698;-0.292;2023-10-31T00:25:13;9.43;;;2.63;;
78004;SDS011;67209;51.698;-0.292;2023-10-31T00:27:39;6.18;;;2.30;;
78004;SDS011;67209;51.698;-0.292;2023-10-31T00:30:05;5.55;;;2.67;;
78004;SDS011;67209;51.698;-0.292;2023-10-31T00:32:31;4.57;;;2.50;;
78004;SDS011;67209;51.698;-0.292;2023-10-31T00:34:57;6.07;;;2.53;;
78004;SDS011;67209;51.698;-0.292;2023-10-31T00:37:24;5.38;;;2.30;;
78004;SDS011;67209;51.698;-0.292;2023-10-31T00:39:50;7.35;;;2.55;;
78004;SDS011;67209;51.698;-0.292;2023-10-31T00:42:16;6.93;;;2.17;;
78004;SDS011;67209;51.698;-0.292;2023-10-31T00:44:42;5.30;;;2.80;;
78004;SDS011;67209;51.698;-0.292;2023-10-31T00:47:08;4.15;;;2.13;;
78004;SDS011;67209;51.698;-0.292;2023-10-31T00:49:35;7.13;;;2.30;;
78004;SDS011;67209;51.698;-0.292;2023-10-31T00:52:01;7.78;;;2.45;;
78004;SDS011;67209;51.698;-0.292;2023-10-31T00:54:27;5.93;;;2.42;;
78004;SDS011;67209;51.698;-0.292;2023-10-31T00:56:53;8.32;;;2.67;;
78004;SDS011;67209;51.698;-0.292;2023-10-31T00:59:19;6.43;;;2.22;;
78004;SDS011;67209;51.698;-0.292;2023-10-31T01:01:45;8.75;;;2.85;;
78004;SDS011;67209;51.698;-0.292;2023-10-31T01:04:11;5.78;;;2.60;;
78004;SDS011;67209;51.698;-0.292;2023-10-31T01:06:43;7.05;;;2.05;;
78004;SDS011;67209;51.698;-0.292;2023-10-31T01:09:09;7.03;;;2.35;;
78004;SDS011;67209;51.698;-0.292;2023-10-31T01:11:36;4.20;;;2.28;;
78004;SDS011;67209;51.698;-0.292;2023-10-31T01:14:02;5.18;;;1.92;;
78004;SDS011;67209;51.698;-0.292;2023-10-31T01:16:28;7.13;;;2.30;;
78004;SDS011;67209;51.698;-0.292;2023-10-31T01:18:54;6.57;;;2.42;;
78004;SDS011;67209;51.698;-0.292;2023-10-31T01:21:20;5.68;;;2.20;;
78004;SDS011;67209;51.698;-0.292;2023-10-31T01:23:46;3.97;;;2.13;;
78004;SDS011;67209;51.698;-0.292;2023-10-31T01:26:12;5.25;;;2.38;;
78004;SDS011;67209;51.698;-0.292;2023-10-31T01:28:39;7.95;;;2.00;;
78004;SDS011;67209;51.698;-0.292;2023-10-31T01:31:05;6.82;;;2.50;;
78004;SDS011;67209;51.698;-0.292;2023-10-31T01:33:31;8.32;;;3.03;;
78004;SDS011;67209;51.698;-0.292;2023-10-31T01:35:57;6.80;;;2.92;;
78004;SDS011;67209;51.698;-0.292;2023-10-31T01:38:23;10.00;;;2.72;;
78004;SDS011;67209;51.698;-0.292;2023-10-31T01:40:49;10.15;;;3.20;;
78004;SDS011;67209;51.698;-0.292;2023-10-31T01:43:31;7.03;;;3.03;;
78004;SDS011;67209;51.698;-0.292;2023-10-31T01:45:58;10.25;;;3.17;;
78004;SDS011;67209;51.698;-0.292;2023-10-31T01:48:24;4.47;;;2.30;;
78004;SDS011;67209;51.698;-0.292;2023-10-31T01:50:50;4.55;;;2.47;;
78004;SDS011;67209;51.698;-0.292;2023-10-31T01:53:16;6.10;;;2.50;;
78004;SDS011;67209;51.698;-0.292;2023-10-31T01:55:43;6.50;;;2.20;;
78004;SDS011;67209;51.698;-0.292;2023-10-31T01:58:10;4.32;;;1.98;;
78004;SDS011;67209;51.698;-0.292;2023-10-31T02:00:36;4.57;;;2.40;;
78004;SDS011;67209;51.698;-0.292;2023-10-31T02:03:06;5.60;;;2.60;;
78004;SDS011;67209;51.698;-0.292;2023-10-31T02:05:33;4.65;;;2.20;;
78004;SDS011;67209;51.698;-0.292;2023-10-31T02:07:59;5.05;;;2.33;;
78004;SDS011;67209;51.698;-0.292;2023-10-31T02:10:25;7.22;;;2.38;;
78004;SDS011;67209;51.698;-0.292;2023-10-31T02:12:51;4.07;;;2.10;;
78004;SDS011;67209;51.698;-0.292;2023-10-31T02:15:17;3.97;;;2.17;;
78004;SDS011;67209;51.698;-0.292;2023-10-31T02:17:43;4.47;;;2.20;;
78004;SDS011;67209;51.698;-0.292;2023-10-31T02:20:09;6.35;;;2.38;;
78004;SDS011;67209;51.698;-0.292;2023-10-31T02:22:36;3.42;;;2.20;;
78004;SDS011;67209;51.698;-0.292;2023-10-31T02:25:03;5.15;;;2.28;;
78004;SDS011;67209;51.698;-0.292;2023-10-31T02:27:29;4.30;;;2.25;;
78004;SDS011;67209;51.698;-0.292;2023-10-31T02:29:55;5.32;;;2.33;;
78004;SDS011;67209;51.698;-0.292;2023-10-31T02:32:21;3.42;;;1.92;;
78004;SDS011;67209;51.698;-0.292;2023-10-31T02:34:47;7.22;;;2.60;;
78004;SDS011;67209;51.698;-0.292;2023-10-31T02:37:13;10.60;;;2.80;;
78004;SDS011;67209;51.698;-0.292;2023-10-31T02:39:39;5.50;;;2.53;;
78004;SDS011;67209;51.698;-0.292;2023-10-31T02:42:05;5.13;;;2.40;;
78004;SDS011;67209;51.698;-0.292;2023-10-31T02:44:31;5.53;;;2.40;;
78004;SDS011;67209;51.698;-0.292;2023-10-31T02:46:57;6.05;;;2.30;;
78004;SDS011;67209;51.698;-0.292;2023-10-31T02:49:23;7.53;;;2.60;;
78004;SDS011;67209;51.698;-0.292;2023-10-31T02:51:49;7.07;;;2.80;;
78004;SDS011;67209;51.698;-0.292;2023-10-31T02:54:15;3.72;;;1.98;;
78004;SDS011;67209;51.698;-0.292;2023-10-31T02:56:41;5.70;;;2.10;;
78004;SDS011;67209;51.698;-0.292;2023-10-31T02:59:07;5.68;;;2.53;;
78004;SDS011;67209;51.698;-0.292;2023-10-31T03:01:35;4.47;;;2.38;;
78004;SDS011;67209;51.698;-0.292;2023-10-31T03:04:01;7.43;;;2.30;;
78004;SDS011;67209;51.698;-0.292;2023-10-31T03:06:27;6.68;;;2.00;;
78004;SDS011;67209;51.698;-0.292;2023-10-31T03:08:53;4.78;;;2.00;;
78004;SDS011;67209;51.698;-0.292;2023-10-31T03:11:23;5.05;;;2.08;;
78004;SDS011;67209;51.698;-0.292;2023-10-31T03:13:49;8.38;;;2.90;;
78004;SDS011;67209;51.698;-0.292;2023-10-31T03:16:16;5.78;;;2.80;;
78004;SDS011;67209;51.698;-0.292;2023-10-31T03:18:42;6.45;;;2.72;;
78004;SDS011;67209;51.698;-0.292;2023-10-31T03:21:08;9.82;;;3.03;;
78004;SDS011;67209;51.698;-0.292;2023-10-31T03:23:34;9.30;;;2.88;;
78004;SDS011;67209;51.698;-0.292;2023-10-31T03:26:00;5.20;;;2.53;;
78004;SDS011;67209;51.698;-0.292;2023-10-31T03:28:26;6.78;;;2.42;;
78004;SDS011;67209;51.698;-0.292;2023-10-31T03:30:52;4.55;;;2.28;;
78004;SDS011;67209;51.698;-0.292;2023-10-31T03:33:18;4.30;;;2.60;;
78004;SDS011;67209;51.698;-0.292;2023-10-31T03:35:44;5.22;;;2.20;;
78004;SDS011;67209;51.698;-0.292;2023-10-31T03:38:10;6.72;;;2.40;;
78004;SDS011;67209;51.698;-0.292;2023-10-31T03:40:36;5.15;;;2.40;;
78004;SDS011;67209;51.698;-0.292;2023-10-31T03:43:02;6.57;;;2.58;;
78004;SDS011;67209;51.698;-0.292;2023-10-31T03:45:28;5.35;;;2.30;;
78004;SDS011;67209;51.698;-0.292;2023-10-31T03:47:54;4.63;;;2.63;;
78004;SDS011;67209;51.698;-0.292;2023-10-31T03:50:20;7.10;;;2.45;;
78004;SDS011;67209;51.698;-0.292;2023-10-31T03:52:46;4.18;;;2.40;;
78004;SDS011;67209;51.698;-0.292;2023-10-31T03:55:12;4.32;;;2.20;;
78004;SDS011;67209;51.698;-0.292;2023-10-31T03:57:38;6.10;;;2.22;;
78004;SDS011;67209;51.698;-0.292;2023-10-31T04:00:05;5.88;;;2.45;;
78004;SDS011;67209;51.698;-0.292;2023-10-31T04:02:32;4.07;;;2.17;;
78004;SDS011;67209;51.698;-0.292;2023-10-31T04:04:58;6.60;;;2.67;;
78004;SDS011;67209;51.698;-0.292;2023-10-31T04:07:24;3.75;;;2.10;;
78004;SDS011;67209;51.698;-0.292;2023-10-31T04:09:50;5.82;;;2.83;;
78004;SDS011;67209;51.698;-0.292;2023-10-31T04:12:16;3.60;;;2.42;;
78004;SDS011;67209;51.698;-0.292;2023-10-31T04:14:42;4.72;;;2.30;;
78004;SDS011;67209;51.698;-0.292;2023-10-31T04:17:11;4.00;;;2.60;;
78004;SDS011;67209;51.698;-0.292;2023-10-31T04:19:37;8.10;;;2.60;;
78004;SDS011;67209;51.698;-0.292;2023-10-31T04:22:03;4.28;;;2.25;;
78004;SDS011;67209;51.698;-0.292;2023-10-31T04:24:29;5.75;;;2.58;;
78004;SDS011;67209;51.698;-0.292;2023-10-31T04:26:56;5.57;;;2.15;;
78004;SDS011;67209;51.698;-0.292;2023-10-31T04:29:22;4.40;;;2.38;;
78004;SDS011;67209;51.698;-0.292;2023-10-31T04:31:48;5.32;;;2.38;;
78004;SDS011;67209;51.698;-0.292;2023-10-31T04:34:14;3.97;;;2.25;;
78004;SDS011;67209;51.698;-0.292;2023-10-31T04:36:40;4.65;;;2.13;;
78004;SDS011;67209;51.698;-0.292;2023-10-31T04:39:07;4.95;;;2.25;;
78004;SDS011;67209;51.698;-0.292;2023-10-31T04:41:33;4.57;;;2.53;;
78004;SDS011;67209;51.698;-0.292;2023-10-31T04:43:59;4.80;;;2.15;;
78004;SDS011;67209;51.698;-0.292;2023-10-31T04:46:25;8.48;;;2.95;;
78004;SDS011;67209;51.698;-0.292;2023-10-31T04:48:54;4.35;;;2.58;;
78004;SDS011;67209;51.698;-0.292;2023-10-31T04:51:20;4.55;;;2.72;;
78004;SDS011;67209;51.698;-0.292;2023-10-31T04:53:46;7.35;;;2.95;;
78004;SDS011;67209;51.698;-0.292;2023-10-31T04:56:12;5.45;;;2.83;;
78004;SDS011;67209;51.698;-0.292;2023-10-31T04:58:39;4.32;;;2.92;;
78004;SDS011;67209;51.698;-0.292;2023-10-31T05:01:08;5.07;;;2.58;;
78004;SDS011;67209;51.698;-0.292;2023-10-31T05:03:34;7.38;;;2.80;;
78004;SDS011;67209;51.698;-0.292;2023-10-31T05:06:00;5.20;;;3.17;;
78004;SDS011;67209;51.698;-0.292;2023-10-31T05:08:29;6.40;;;3.45;;
78004;SDS011;67209;51.698;-0.292;2023-10-31T05:10:55;6.80;;;2.92;;
78004;SDS011;67209;51.698;-0.292;2023-10-31T05:13:21;5.22;;;2.90;;
78004;SDS011;67209;51.698;-0.292;2023-10-31T05:15:47;8.48;;;3.28;;
78004;SDS011;67209;51.698;-0.292;2023-10-31T05:18:13;5.57;;;2.72;;
78004;SDS011;67209;51.698;-0.292;2023-10-31T05:20:39;6.00;;;3.10;;
78004;SDS011;67209;51.698;-0.292;2023-10-31T05:23:05;5.57;;;2.72;;
78004;SDS011;67209;51.698;-0.292;2023-10-31T05:25:31;9.07;;;3.28;;
78004;SDS011;67209;51.698;-0.292;2023-10-31T05:27:57;7.05;;;3.08;;
78004;SDS011;67209;51.698;-0.292;2023-10-31T05:30:24;4.95;;;2.88;;
78004;SDS011;67209;51.698;-0.292;2023-10-31T05:32:50;8.25;;;3.72;;
78004;SDS011;67209;51.698;-0.292;2023-10-31T05:35:16;9.50;;;3.85;;
78004;SDS011;67209;51.698;-0.292;2023-10-31T05:37:42;9.35;;;4.45;;
78004;SDS011;67209;51.698;-0.292;2023-10-31T05:40:09;11.43;;;4.28;;
78004;SDS011;67209;51.698;-0.292;2023-10-31T05:42:35;11.52;;;4.78;;
78004;SDS011;67209;51.698;-0.292;2023-10-31T05:45:01;12.77;;;4.72;;
78004;SDS011;67209;51.698;-0.292;2023-10-31T05:47:27;11.82;;;4.95;;
78004;SDS011;67209;51.698;-0.292;2023-10-31T05:49:53;13.15;;;4.88;;
78004;SDS011;67209;51.698;-0.292;2023-10-31T05:52:19;11.43;;;5.00;;
78004;SDS011;67209;51.698;-0.292;2023-10-31T05:54:45;16.00;;;5.47;;
78004;SDS011;67209;51.698;-0.292;2023-10-31T05:57:11;10.95;;;4.10;;
78004;SDS011;67209;51.698;-0.292;2023-10-31T05:59:37;13.95;;;4.65;;
78004;SDS011;67209;51.698;-0.292;2023-10-31T06:02:03;12.88;;;4.63;;
78004;SDS011;67209;51.698;-0.292;2023-10-31T06:04:29;13.95;;;4.95;;
78004;SDS011;67209;51.698;-0.292;2023-10-31T06:06:55;14.57;;;5.32;;
78004;SDS011;67209;51.698;-0.292;2023-10-31T06:09:21;14.07;;;5.28;;
78004;SDS011;67209;51.698;-0.292;2023-10-31T06:11:47;15.90;;;5.60;;
78004;SDS011;67209;51.698;-0.292;2023-10-31T06:14:13;11.25;;;5.75;;
78004;SDS011;67209;51.698;-0.292;2023-10-31T06:16:40;16.30;;;5.97;;
78004;SDS011;67209;51.698;-0.292;2023-10-31T06:19:09;15.77;;;5.10;;
78004;SDS011;67209;51.698;-0.292;2023-10-31T06:21:36;18.23;;;5.80;;
78004;SDS011;67209;51.698;-0.292;2023-10-31T06:24:03;19.10;;;5.63;;
78004;SDS011;67209;51.698;-0.292;2023-10-31T06:26:29;14.05;;;5.82;;
78004;SDS011;67209;51.698;-0.292;2023-10-31T06:28:55;11.93;;;4.70;;
78004;SDS011;67209;51.698;-0.292;2023-10-31T06:31:21;13.65;;;4.70;;
78004;SDS011;67209;51.698;-0.292;2023-10-31T06:33:47;9.38;;;4.50;;
78004;SDS011;67209;51.698;-0.292;2023-10-31T06:36:13;11.55;;;5.20;;
78004;SDS011;67209;51.698;-0.292;2023-10-31T06:38:40;12.55;;;4.50;;
78004;SDS011;67209;51.698;-0.292;2023-10-31T06:41:06;11.05;;;4.82;;
78004;SDS011;67209;51.698;-0.292;2023-10-31T06:43:32;10.45;;;4.97;;
78004;SDS011;67209;51.698;-0.292;2023-10-31T06:45:58;9.38;;;4.43;;
78004;SDS011;67209;51.698;-0.292;2023-10-31T06:48:25;11.77;;;4.82;;
78004;SDS011;67209;51.698;-0.292;2023-10-31T06:50:51;9.93;;;4.55;;
78004;SDS011;67209;51.698;-0.292;2023-10-31T06:53:17;11.93;;;5.10;;
78004;SDS011;67209;51.698;-0.292;2023-10-31T06:55:43;11.18;;;5.07;;
78004;SDS011;67209;51.698;-0.292;2023-10-31T06:58:09;15.57;;;5.60;;
78004;SDS011;67209;51.698;-0.292;2023-10-31T07:00:35;13.68;;;5.50;;
78004;SDS011;67209;51.698;-0.292;2023-10-31T07:03:02;11.63;;;4.78;;
78004;SDS011;67209;51.698;-0.292;2023-10-31T07:07:59;11.80;;;4.43;;
78004;SDS011;67209;51.698;-0.292;2023-10-31T07:10:25;56.15;;;8.73;;
78004;SDS011;67209;51.698;-0.292;2023-10-31T07:12:51;13.70;;;4.80;;
78004;SDS011;67209;51.698;-0.292;2023-10-31T07:15:17;13.95;;;5.10;;
78004;SDS011;67209;51.698;-0.292;2023-10-31T07:17:43;11.45;;;4.93;;
78004;SDS011;67209;51.698;-0.292;2023-10-31T07:20:09;13.20;;;4.95;;
78004;SDS011;67209;51.698;-0.292;2023-10-31T07:22:35;257.30;;;24.90;;
78004;SDS011;67209;51.698;-0.292;2023-10-31T07:25:01;10.43;;;4.32;;
78004;SDS011;67209;51.698;-0.292;2023-10-31T07:27:28;11.73;;;5.18;;
78004;SDS011;67209;51.698;-0.292;2023-10-31T07:29:54;12.30;;;4.82;;
78004;SDS011;67209;51.698;-0.292;2023-10-31T07:32:20;10.20;;;4.97;;
78004;SDS011;67209;51.698;-0.292;2023-10-31T07:34:47;11.55;;;4.63;;
78004;SDS011;67209;51.698;-0.292;2023-10-31T07:37:13;8.27;;;4.40;;
78004;SDS011;67209;51.698;-0.292;2023-10-31T07:39:39;13.18;;;4.72;;
78004;SDS011;67209;51.698;-0.292;2023-10-31T07:42:05;9.48;;;4.85;;
78004;SDS011;67209;51.698;-0.292;2023-10-31T07:44:31;8.55;;;4.15;;
78004;SDS011;67209;51.698;-0.292;2023-10-31T07:46:57;9.15;;;4.70;;
78004;SDS011;67209;51.698;-0.292;2023-10-31T07:49:23;13.48;;;5.40;;
78004;SDS011;67209;51.698;-0.292;2023-10-31T07:51:49;13.55;;;4.95;;
78004;SDS011;67209;51.698;-0.292;2023-10-31T07:54:15;10.00;;;5.05;;
78004;SDS011;67209;51.698;-0.292;2023-10-31T07:56:41;10.25;;;4.70;;
78004;SDS011;67209;51.698;-0.292;2023-10-31T07:59:07;11.05;;;5.70;;
78004;SDS011;67209;51.698;-0.292;2023-10-31T08:01:34;9.88;;;5.00;;
78004;SDS011;67209;51.698;-0.292;2023-10-31T08:04:00;10.98;;;5.20;;
78004;SDS011;67209;51.698;-0.292;2023-10-31T08:06:26;10.63;;;4.75;;
78004;SDS011;67209;51.698;-0.292;2023-10-31T08:08:53;11.68;;;4.78;;
78004;SDS011;67209;51.698;-0.292;2023-10-31T08:11:19;13.23;;;5.07;;
78004;SDS011;67209;51.698;-0.292;2023-10-31T08:13:46;9.75;;;4.57;;
78004;SDS011;67209;51.698;-0.292;2023-10-31T08:16:16;9.50;;;4.47;;
78004;SDS011;67209;51.698;-0.292;2023-10-31T08:18:43;9.65;;;4.90;;
78004;SDS011;67209;51.698;-0.292;2023-10-31T08:21:10;9.90;;;4.45;;
78004;SDS011;67209;51.698;-0.292;2023-10-31T08:23:36;7.55;;;4.18;;
78004;SDS011;67209;51.698;-0.292;2023-10-31T08:26:03;8.40;;;4.30;;
78004;SDS011;67209;51.698;-0.292;2023-10-31T08:28:29;8.73;;;4.10;;
78004;SDS011;67209;51.698;-0.292;2023-10-31T08:30:55;8.63;;;4.13;;
78004;SDS011;67209;51.698;-0.292;2023-10-31T08:33:21;10.23;;;3.88;;
78004;SDS011;67209;51.698;-0.292;2023-10-31T08:35:48;7.78;;;3.55;;
78004;SDS011;67209;51.698;-0.292;2023-10-31T08:38:14;20.90;;;4.35;;
78004;SDS011;67209;51.698;-0.292;2023-10-31T08:40:40;9.95;;;4.00;;
78004;SDS011;67209;51.698;-0.292;2023-10-31T08:43:06;8.20;;;5.25;;
78004;SDS011;67209;51.698;-0.292;2023-10-31T08:45:33;9.38;;;3.35;;
78004;SDS011;67209;51.698;-0.292;2023-10-31T08:47:59;9.52;;;3.70;;
78004;SDS011;67209;51.698;-0.292;2023-10-31T08:50:25;127.22;;;16.67;;
78004;SDS011;67209;51.698;-0.292;2023-10-31T08:52:51;9.77;;;3.55;;
78004;SDS011;67209;51.698;-0.292;2023-10-31T08:55:17;10.73;;;4.13;;
78004;SDS011;67209;51.698;-0.292;2023-10-31T08:57:43;9.07;;;4.20;;
78004;SDS011;67209;51.698;-0.292;2023-10-31T09:00:10;7.88;;;3.50;;
78004;SDS011;67209;51.698;-0.292;2023-10-31T09:02:36;7.97;;;3.15;;
78004;SDS011;67209;51.698;-0.292;2023-10-31T09:05:02;9.40;;;3.13;;
78004;SDS011;67209;51.698;-0.292;2023-10-31T09:07:28;6.85;;;2.92;;
78004;SDS011;67209;51.698;-0.292;2023-10-31T09:09:54;9.50;;;3.45;;
78004;SDS011;67209;51.698;-0.292;2023-10-31T09:12:20;7.25;;;3.45;;
78004;SDS011;67209;51.698;-0.292;2023-10-31T09:14:46;10.05;;;3.25;;
78004;SDS011;67209;51.698;-0.292;2023-10-31T09:17:12;6.28;;;3.10;;
78004;SDS011;67209;51.698;-0.292;2023-10-31T09:19:38;10.40;;;4.32;;
78004;SDS011;67209;51.698;-0.292;2023-10-31T09:22:04;96.03;;;10.82;;
78004;SDS011;67209;51.698;-0.292;2023-10-31T09:24:30;13.20;;;4.07;;
78004;SDS011;67209;51.698;-0.292;2023-10-31T09:26:56;8.02;;;3.00;;
78004;SDS011;67209;51.698;-0.292;2023-10-31T09:29:22;7.93;;;3.90;;
78004;SDS011;67209;51.698;-0.292;2023-10-31T09:31:48;7.57;;;4.07;;
78004;SDS011;67209;51.698;-0.292;2023-10-31T09:34:14;11.38;;;4.50;;
78004;SDS011;67209;51.698;-0.292;2023-10-31T09:36:40;9.88;;;5.22;;
78004;SDS011;67209;51.698;-0.292;2023-10-31T09:39:06;14.38;;;6.85;;
78004;SDS011;67209;51.698;-0.292;2023-10-31T09:41:32;22.48;;;8.15;;
78004;SDS011;67209;51.698;-0.292;2023-10-31T09:43:58;33.03;;;8.40;;
78004;SDS011;67209;51.698;-0.292;2023-10-31T09:46:24;15.38;;;7.85;;
78004;SDS011;67209;51.698;-0.292;2023-10-31T09:48:50;178.30;;;23.83;;
78004;SDS011;67209;51.698;-0.292;2023-10-31T09:51:16;16.27;;;8.57;;
78004;SDS011;67209;51.698;-0.292;2023-10-31T09:53:44;101.40;;;19.05;;
78004;SDS011;67209;51.698;-0.292;2023-10-31T09:56:10;28.08;;;13.60;;
78004;SDS011;67209;51.698;-0.292;2023-10-31T09:58:36;21.65;;;10.48;;
78004;SDS011;67209;51.698;-0.292;2023-10-31T10:01:04;55.10;;;17.70;;
78004;SDS011;67209;51.698;-0.292;2023-10-31T10:03:30;22.45;;;12.68;;
78004;SDS011;67209;51.698;-0.292;2023-10-31T10:05:56;25.52;;;10.90;;
78004;SDS011;67209;51.698;-0.292;2023-10-31T10:08:23;23.30;;;12.60;;
78004;SDS011;67209;51.698;-0.292;2023-10-31T10:10:49;19.17;;;9.00;;
78004;SDS011;67209;51.698;-0.292;2023-10-31T10:13:22;17.70;;;8.13;;
78004;SDS011;67209;51.698;-0.292;2023-10-31T10:15:49;20.15;;;10.10;;
78004;SDS011;67209;51.698;-0.292;2023-10-31T10:18:26;12.63;;;6.68;;
78004;SDS011;67209;51.698;-0.292;2023-10-31T10:20:56;12.30;;;6.28;;
78004;SDS011;67209;51.698;-0.292;2023-10-31T10:23:23;7.63;;;5.05;;
78004;SDS011;67209;51.698;-0.292;2023-10-31T10:25:49;7.43;;;4.50;;
78004;SDS011;67209;51.698;-0.292;2023-10-31T10:28:15;9.88;;;5.18;;
78004;SDS011;67209;51.698;-0.292;2023-10-31T10:30:41;7.85;;;3.75;;
78004;SDS011;67209;51.698;-0.292;2023-10-31T10:33:07;7.70;;;3.92;;
78004;SDS011;67209;51.698;-0.292;2023-10-31T10:35:33;7.60;;;3.47;;
78004;SDS011;67209;51.698;-0.292;2023-10-31T10:38:00;9.25;;;3.38;;
78004;SDS011;67209;51.698;-0.292;2023-10-31T10:40:27;6.75;;;2.75;;
78004;SDS011;67209;51.698;-0.292;2023-10-31T10:42:53;6.85;;;3.33;;
78004;SDS011;67209;51.698;-0.292;2023-10-31T10:45:24;6.03;;;2.97;;
78004;SDS011;67209;51.698;-0.292;2023-10-31T10:47:51;8.48;;;2.80;;
78004;SDS011;67209;51.698;-0.292;2023-10-31T10:50:20;9.15;;;3.72;;
78004;SDS011;67209;51.698;-0.292;2023-10-31T10:53:07;9.30;;;4.47;;
78004;SDS011;67209;51.698;-0.292;2023-10-31T10:55:39;10.27;;;4.20;;
78004;SDS011;67209;51.698;-0.292;2023-10-31T10:58:07;7.28;;;3.80;;
78004;SDS011;67209;51.698;-0.292;2023-10-31T11:00:34;39.15;;;6.45;;
78004;SDS011;67209;51.698;-0.292;2023-10-31T11:03:00;57.38;;;7.97;;
78004;SDS011;67209;51.698;-0.292;2023-10-31T11:05:26;8.73;;;4.22;;
78004;SDS011;67209;51.698;-0.292;2023-10-31T11:07:53;7.88;;;3.72;;
78004;SDS011;67209;51.698;-0.292;2023-10-31T11:10:22;10.27;;;4.18;;
78004;SDS011;67209;51.698;-0.292;2023-10-31T11:12:48;8.63;;;3.85;;
78004;SDS011;67209;51.698;-0.292;2023-10-31T11:15:16;12.35;;;4.13;;
78004;SDS011;67209;51.698;-0.292;2023-10-31T11:17:43;7.20;;;3.40;;
78004;SDS011;67209;51.698;-0.292;2023-10-31T11:20:10;8.65;;;4.10;;
78004;SDS011;67209;51.698;-0.292;2023-10-31T11:22:43;6.82;;;3.55;;
78004;SDS011;67209;51.698;-0.292;2023-10-31T11:25:10;21.92;;;4.38;;
78004;SDS011;67209;51.698;-0.292;2023-10-31T11:27:36;9.55;;;3.53;;
78004;SDS011;67209;51.698;-0.292;2023-10-31T11:30:06;5.82;;;3.30;;
78004;SDS011;67209;51.698;-0.292;2023-10-31T11:32:32;8.60;;;3.55;;
78004;SDS011;67209;51.698;-0.292;2023-10-31T11:35:01;9.07;;;3.35;;
78004;SDS011;67209;51.698;-0.292;2023-10-31T11:37:33;6.88;;;3.42;;
78004;SDS011;67209;51.698;-0.292;2023-10-31T11:40:16;8.07;;;3.33;;
78004;SDS011;67209;51.698;-0.292;2023-10-31T11:42:49;5.75;;;3.00;;
78004;SDS011;67209;51.698;-0.292;2023-10-31T11:48:13;9.05;;;3.38;;
78004;SDS011;67209;51.698;-0.292;2023-10-31T11:50:40;6.15;;;3.47;;
78004;SDS011;67209;51.698;-0.292;2023-10-31T11:53:07;7.30;;;3.53;;
78004;SDS011;67209;51.698;-0.292;2023-10-31T11:55:36;7.20;;;3.35;;
78004;SDS011;67209;51.698;-0.292;2023-10-31T12:00:41;9.80;;;3.83;;
78004;SDS011;67209;51.698;-0.292;2023-10-31T12:03:07;10.27;;;4.93;;
78004;SDS011;67209;51.698;-0.292;2023-10-31T12:05:34;8.85;;;4.07;;
78004;SDS011;67209;51.698;-0.292;2023-10-31T12:08:00;7.97;;;4.03;;
78004;SDS011;67209;51.698;-0.292;2023-10-31T12:10:28;9.35;;;4.20;;
78004;SDS011;67209;51.698;-0.292;2023-10-31T12:12:57;6.93;;;3.60;;
78004;SDS011;67209;51.698;-0.292;2023-10-31T12:15:25;8.50;;;4.22;;
78004;SDS011;67209;51.698;-0.292;2023-10-31T12:17:51;9.25;;;3.55;;
78004;SDS011;67209;51.698;-0.292;2023-10-31T12:20:17;9.02;;;3.70;;
78004;SDS011;67209;51.698;-0.292;2023-10-31T12:22:44;7.30;;;3.50;;
78004;SDS011;67209;51.698;-0.292;2023-10-31T12:25:10;7.22;;;3.03;;
78004;SDS011;67209;51.698;-0.292;2023-10-31T12:27:47;6.43;;;2.80;;
78004;SDS011;67209;51.698;-0.292;2023-10-31T12:30:14;8.10;;;3.15;;
78004;SDS011;67209;51.698;-0.292;2023-10-31T12:32:41;5.28;;;2.17;;
78004;SDS011;67209;51.698;-0.292;2023-10-31T12:35:08;2.67;;;1.80;;
78004;SDS011;67209;51.698;-0.292;2023-10-31T12:37:35;6.63;;;2.53;;
78004;SDS011;67209;51.698;-0.292;2023-10-31T12:40:01;5.28;;;1.90;;
78004;SDS011;67209;51.698;-0.292;2023-10-31T12:42:30;3.63;;;1.70;;
78004;SDS011;67209;51.698;-0.292;2023-10-31T12:44:57;7.28;;;1.83;;
78004;SDS011;67209;51.698;-0.292;2023-10-31T12:47:24;4.70;;;2.22;;
78004;SDS011;67209;51.698;-0.292;2023-10-31T12:50:06;4.22;;;1.80;;
78004;SDS011;67209;51.698;-0.292;2023-10-31T12:52:52;2.30;;;1.20;;
78004;SDS011;67209;51.698;-0.292;2023-10-31T12:55:22;4.35;;;1.40;;
78004;SDS011;67209;51.698;-0.292;2023-10-31T12:57:49;4.78;;;1.63;;
78004;SDS011;67209;51.698;-0.292;2023-10-31T13:00:16;7.57;;;1.27;;
78004;SDS011;67209;51.698;-0.292;2023-10-31T13:02:49;5.07;;;1.60;;
78004;SDS011;67209;51.698;-0.292;2023-10-31T13:05:15;4.85;;;1.90;;
78004;SDS011;67209;51.698;-0.292;2023-10-31T13:07:51;2.67;;;1.10;;
78004;SDS011;67209;51.698;-0.292;2023-10-31T13:10:20;5.00;;;1.20;;
78004;SDS011;67209;51.698;-0.292;2023-10-31T13:12:46;6.90;;;1.60;;
78004;SDS011;67209;51.698;-0.292;2023-10-31T13:15:16;5.60;;;1.98;;
78004;SDS011;67209;51.698;-0.292;2023-10-31T13:17:43;5.47;;;1.70;;
78004;SDS011;67209;51.698;-0.292;2023-10-31T13:20:10;4.47;;;1.42;;
78004;SDS011;67209;51.698;-0.292;2023-10-31T13:22:37;4.47;;;1.70;;
78004;SDS011;67209;51.698;-0.292;2023-10-31T13:25:03;3.03;;;1.83;;
78004;SDS011;67209;51.698;-0.292;2023-10-31T13:27:36;5.93;;;1.80;;
78004;SDS011;67209;51.698;-0.292;2023-10-31T13:30:04;2.78;;;1.50;;
78004;SDS011;67209;51.698;-0.292;2023-10-31T13:32:30;4.22;;;1.27;;
78004;SDS011;67209;51.698;-0.292;2023-10-31T13:34:56;4.30;;;1.20;;
78004;SDS011;67209;51.698;-0.292;2023-10-31T13:37:22;4.13;;;1.10;;
78004;SDS011;67209;51.698;-0.292;2023-10-31T13:39:48;4.97;;;1.10;;
78004;SDS011;67209;51.698;-0.292;2023-10-31T13:42:14;4.22;;;1.20;;
78004;SDS011;67209;51.698;-0.292;2023-10-31T13:44:40;2.92;;;1.00;;
78004;SDS011;67209;51.698;-0.292;2023-10-31T13:47:07;2.35;;;1.00;;
78004;SDS011;67209;51.698;-0.292;2023-10-31T13:49:33;3.13;;;1.02;;
78004;SDS011;67209;51.698;-0.292;2023-10-31T13:51:59;1.95;;;0.93;;
78004;SDS011;67209;51.698;-0.292;2023-10-31T13:54:25;1.23;;;0.80;;
78004;SDS011;67209;51.698;-0.292;2023-10-31T13:56:51;3.90;;;1.08;;
78004;SDS011;67209;51.698;-0.292;2023-10-31T13:59:17;2.78;;;0.88;;
78004;SDS011;67209;51.698;-0.292;2023-10-31T14:01:43;2.75;;;0.90;;
78004;SDS011;67209;51.698;-0.292;2023-10-31T14:04:12;2.70;;;1.40;;
78004;SDS011;67209;51.698;-0.292;2023-10-31T14:06:39;3.08;;;1.50;;
78004;SDS011;67209;51.698;-0.292;2023-10-31T14:09:05;3.08;;;1.40;;
78004;SDS011;67209;51.698;-0.292;2023-10-31T14:11:32;3.30;;;1.50;;
78004;SDS011;67209;51.698;-0.292;2023-10-31T14:14:02;4.38;;;1.50;;
78004;SDS011;67209;51.698;-0.292;2023-10-31T14:16:32;4.68;;;1.45;;
78004;SDS011;67209;51.698;-0.292;2023-10-31T14:18:58;3.78;;;1.67;;
78004;SDS011;67209;51.698;-0.292;2023-10-31T14:21:24;2.75;;;1.45;;
78004;SDS011;67209;51.698;-0.292;2023-10-31T14:23:51;4.47;;;1.75;;
78004;SDS011;67209;51.698;-0.292;2023-10-31T14:26:19;5.20;;;1.90;;
78004;SDS011;67209;51.698;-0.292;2023-10-31T14:28:45;4.45;;;1.60;;
78004;SDS011;67209;51.698;-0.292;2023-10-31T14:31:11;3.80;;;1.52;;
78004;SDS011;67209;51.698;-0.292;2023-10-31T14:33:37;2.45;;;1.30;;
78004;SDS011;67209;51.698;-0.292;2023-10-31T14:36:03;4.13;;;1.52;;